Terminal Aerodrome Forecast
Issued by NWS Sterling, VA

Current Version | Previous Version | Graphics & Text | Print | Product List | Glossary On
Versions: 1 2 3 4 5 6 7 8 9 10 11 12 13 14 15 16 17 18 19 20 21 22 23 24
000
FTUS41 KLWX 210520
TAFIAD
TAF
KIAD 210520Z 2106/2212 19007KT P6SM BKN250
     FM210900 19007KT P6SM SCT250 WS020/22038KT
     FM211500 20012G20KT P6SM SCT250
     FM212300 19007KT P6SM SCT250
     FM220200 20006KT P6SM BKN050
     FM220900 VRB04KT P6SM SCT050 BKN250
     FM221100 30006KT P6SM SCT050 SCT250=

USA.gov is the U.S. government's official web portal to all federal, state and local government web resources and services.